Time;durP1;ratioP1;P1;durP2;ratioP2;P2;SDS_P1;SDS_P2;PMS_P1;PMS_P2;Temp;Humidity;BMP_temperature;BMP_pressure;BME280_temperature;BME280_humidity;BME280_pressure;Samples;Min_cycle;Max_cycle;Signal;HPM_P1;HPM_P2
2021/08/08 00:01:52;;;;;;;1.43;1.31;;;;;;;21.62;70.59;99723.17;;;;-51
2021/08/08 00:04:53;;;;;;;1.40;1.30;;;;;;;21.61;70.57;99725.31;;;;-51
2021/08/08 00:07:52;;;;;;;1.59;1.15;;;;;;;21.59;70.57;99724.11;;;;-52
2021/08/08 00:10:52;;;;;;;1.41;1.31;;;;;;;21.60;70.60;99728.83;;;;-52
2021/08/08 00:13:52;;;;;;;1.38;1.25;;;;;;;21.60;70.57;99732.68;;;;-52
2021/08/08 00:16:52;;;;;;;1.28;1.18;;;;;;;21.59;70.58;99736.10;;;;-51
2021/08/08 00:19:53;;;;;;;1.39;1.27;;;;;;;21.59;70.63;99735.54;;;;-52
2021/08/08 00:22:52;;;;;;;1.31;1.19;;;;;;;21.58;70.56;99735.64;;;;-51
2021/08/08 00:25:52;;;;;;;1.33;1.23;;;;;;;21.58;70.65;99740.75;;;;-51
2021/08/08 00:28:52;;;;;;;1.37;1.27;;;;;;;21.58;70.63;99741.19;;;;-51
2021/08/08 00:31:52;;;;;;;1.56;1.43;;;;;;;21.57;70.57;99744.03;;;;-52
2021/08/08 00:34:52;;;;;;;1.40;1.30;;;;;;;21.57;70.62;99741.69;;;;-51
2021/08/08 00:37:52;;;;;;;1.35;1.25;;;;;;;21.56;70.63;99747.41;;;;-51
2021/08/08 00:40:52;;;;;;;1.22;1.14;;;;;;;21.56;70.63;99745.29;;;;-51
2021/08/08 00:43:52;;;;;;;1.60;1.25;;;;;;;21.55;70.61;99745.95;;;;-51
2021/08/08 00:46:52;;;;;;;1.30;1.20;;;;;;;21.54;70.64;99750.21;;;;-51
2021/08/08 00:49:52;;;;;;;1.24;1.14;;;;;;;21.55;70.60;99755.96;;;;-51
2021/08/08 00:52:52;;;;;;;1.37;1.27;;;;;;;21.54;70.64;99757.12;;;;-52
2021/08/08 00:55:52;;;;;;;1.39;1.27;;;;;;;21.53;70.62;99755.59;;;;-51
2021/08/08 00:58:52;;;;;;;1.44;1.21;;;;;;;21.54;70.67;99755.98;;;;-52
2021/08/08 01:01:52;;;;;;;1.81;1.30;;;;;;;21.53;70.66;99757.89;;;;-51
2021/08/08 01:04:52;;;;;;;1.48;1.38;;;;;;;21.52;70.62;99754.80;;;;-51
2021/08/08 01:07:52;;;;;;;1.80;1.36;;;;;;;21.52;70.70;99755.35;;;;-51
2021/08/08 01:10:52;;;;;;;1.31;1.21;;;;;;;21.51;70.66;99758.88;;;;-51
2021/08/08 01:13:52;;;;;;;1.28;1.18;;;;;;;21.51;70.63;99759.20;;;;-51
2021/08/08 01:16:52;;;;;;;1.50;1.17;;;;;;;21.51;70.69;99759.38;;;;-51
2021/08/08 01:19:52;;;;;;;1.30;1.20;;;;;;;21.51;70.62;99768.35;;;;-51
2021/08/08 01:22:52;;;;;;;1.23;1.15;;;;;;;21.50;70.67;99769.02;;;;-51
2021/08/08 01:25:52;;;;;;;1.12;1.10;;;;;;;21.50;70.69;99769.74;;;;-51
2021/08/08 01:28:53;;;;;;;2.59;1.16;;;;;;;21.50;70.64;99772.83;;;;-51
2021/08/08 01:31:52;;;;;;;1.30;1.20;;;;;;;21.49;70.65;99774.70;;;;-51
2021/08/08 01:34:52;;;;;;;1.30;1.20;;;;;;;21.49;70.74;99775.86;;;;-51
2021/08/08 01:37:52;;;;;;;1.85;1.09;;;;;;;21.49;70.69;99772.53;;;;-51
2021/08/08 01:40:52;;;;;;;2.07;1.29;;;;;;;21.48;70.63;99771.96;;;;-51
2021/08/08 01:43:52;;;;;;;1.32;1.22;;;;;;;21.48;70.62;99771.72;;;;-51
2021/08/08 01:46:52;;;;;;;1.48;1.20;;;;;;;21.48;70.67;99767.95;;;;-51
2021/08/08 01:49:52;;;;;;;1.28;1.13;;;;;;;21.48;70.61;99773.45;;;;-51
2021/08/08 01:52:52;;;;;;;1.30;1.20;;;;;;;21.47;70.64;99772.86;;;;-51
2021/08/08 01:55:52;;;;;;;1.39;1.29;;;;;;;21.47;70.65;99774.09;;;;-51
2021/08/08 01:58:52;;;;;;;1.57;1.20;;;;;;;21.47;70.61;99772.55;;;;-52
2021/08/08 02:01:52;;;;;;;1.30;1.20;;;;;;;21.47;70.65;99773.28;;;;-51
2021/08/08 02:04:52;;;;;;;1.53;1.29;;;;;;;21.45;70.67;99771.50;;;;-51
2021/08/08 02:07:52;;;;;;;1.30;1.20;;;;;;;21.46;70.61;99773.70;;;;-52
2021/08/08 02:10:52;;;;;;;1.29;1.17;;;;;;;21.45;70.68;99774.11;;;;-51
2021/08/08 02:13:52;;;;;;;1.53;1.20;;;;;;;21.45;70.63;99775.27;;;;-51
2021/08/08 02:16:52;;;;;;;1.53;1.30;;;;;;;21.45;70.63;99779.17;;;;-51
2021/08/08 02:19:52;;;;;;;1.34;1.24;;;;;;;21.45;70.62;99780.72;;;;-51
2021/08/08 02:22:52;;;;;;;1.41;1.20;;;;;;;21.45;70.67;99782.03;;;;-51
2021/08/08 02:25:53;;;;;;;1.26;1.11;;;;;;;21.45;70.66;99784.62;;;;-52
2021/08/08 02:28:52;;;;;;;1.13;1.03;;;;;;;21.44;70.70;99781.97;;;;-51
2021/08/08 02:31:52;;;;;;;1.30;1.20;;;;;;;21.44;70.71;99785.33;;;;-52
2021/08/08 02:34:52;;;;;;;2.95;1.20;;;;;;;21.43;70.71;99787.35;;;;-51
2021/08/08 02:37:52;;;;;;;1.46;1.20;;;;;;;21.43;70.65;99790.21;;;;-51
2021/08/08 02:40:52;;;;;;;1.75;1.27;;;;;;;21.43;70.65;99792.08;;;;-51
2021/08/08 02:43:52;;;;;;;1.19;1.11;;;;;;;21.43;70.68;99794.29;;;;-52
2021/08/08 02:46:52;;;;;;;1.23;1.13;;;;;;;21.41;70.70;99800.21;;;;-52
2021/08/08 02:49:52;;;;;;;1.47;1.17;;;;;;;21.42;70.71;99799.34;;;;-52
2021/08/08 02:52:53;;;;;;;1.25;1.15;;;;;;;21.42;70.74;99807.08;;;;-51
2021/08/08 02:55:52;;;;;;;1.07;1.07;;;;;;;21.41;70.67;99812.20;;;;-51
2021/08/08 02:58:52;;;;;;;1.37;1.19;;;;;;;21.41;70.69;99819.79;;;;-51
2021/08/08 03:01:52;;;;;;;1.33;1.23;;;;;;;21.40;70.71;99820.20;;;;-52
2021/08/08 03:04:52;;;;;;;1.27;1.17;;;;;;;21.40;70.78;99821.94;;;;-51
2021/08/08 03:07:52;;;;;;;1.49;1.23;;;;;;;21.40;70.72;99823.97;;;;-51
2021/08/08 03:10:52;;;;;;;1.39;1.25;;;;;;;21.39;70.73;99824.80;;;;-51
2021/08/08 03:13:52;;;;;;;1.29;1.19;;;;;;;21.39;70.72;99830.98;;;;-51
2021/08/08 03:16:52;;;;;;;2.12;1.20;;;;;;;21.39;70.71;99834.09;;;;-51
2021/08/08 03:19:52;;;;;;;1.19;1.10;;;;;;;21.39;70.74;99835.95;;;;-51
2021/08/08 03:22:52;;;;;;;1.23;1.13;;;;;;;21.38;70.76;99833.19;;;;-51
2021/08/08 03:25:52;;;;;;;1.23;1.14;;;;;;;21.39;70.77;99840.19;;;;-51
2021/08/08 03:28:52;;;;;;;1.29;1.19;;;;;;;21.37;70.75;99847.97;;;;-51
2021/08/08 03:31:52;;;;;;;1.20;1.10;;;;;;;21.37;70.81;99847.64;;;;-52
2021/08/08 03:34:52;;;;;;;1.49;1.11;;;;;;;21.37;70.71;99849.16;;;;-51
2021/08/08 03:37:52;;;;;;;1.03;1.02;;;;;;;21.36;70.79;99844.79;;;;-51
2021/08/08 03:40:52;;;;;;;1.16;1.09;;;;;;;21.36;70.79;99852.20;;;;-51
2021/08/08 03:43:52;;;;;;;1.11;1.10;;;;;;;21.36;70.78;99860.77;;;;-51
2021/08/08 03:46:52;;;;;;;1.49;1.11;;;;;;;21.35;70.79;99864.51;;;;-52
2021/08/08 03:49:52;;;;;;;1.30;1.20;;;;;;;21.35;70.77;99865.41;;;;-52
2021/08/08 03:52:52;;;;;;;1.19;1.09;;;;;;;21.34;70.83;99871.95;;;;-51
2021/08/08 03:55:52;;;;;;;1.18;1.09;;;;;;;21.35;70.78;99877.80;;;;-51
2021/08/08 03:58:52;;;;;;;1.30;1.20;;;;;;;21.35;70.73;99882.04;;;;-51
2021/08/08 04:01:52;;;;;;;1.21;1.11;;;;;;;21.34;70.78;99897.72;;;;-51
2021/08/08 04:04:52;;;;;;;1.23;1.13;;;;;;;21.34;70.79;99902.84;;;;-51
2021/08/08 04:07:52;;;;;;;1.42;1.22;;;;;;;21.34;70.75;99909.22;;;;-51
2021/08/08 04:10:52;;;;;;;1.32;1.22;;;;;;;21.33;70.83;99915.66;;;;-51
2021/08/08 04:13:52;;;;;;;1.23;1.14;;;;;;;21.34;70.79;99916.22;;;;-51
2021/08/08 04:16:52;;;;;;;1.18;1.08;;;;;;;21.32;70.81;99905.06;;;;-51
2021/08/08 04:19:52;;;;;;;1.23;1.10;;;;;;;21.33;70.81;99913.03;;;;-51
2021/08/08 04:22:52;;;;;;;1.20;1.10;;;;;;;21.32;70.81;99907.59;;;;-52
2021/08/08 04:25:52;;;;;;;1.35;1.17;;;;;;;21.32;70.80;99908.25;;;;-51
2021/08/08 04:28:52;;;;;;;1.10;1.10;;;;;;;21.31;70.81;99911.93;;;;-51
2021/08/08 04:31:52;;;;;;;1.00;1.00;;;;;;;21.32;70.73;99918.11;;;;-51
2021/08/08 04:34:52;;;;;;;1.11;1.10;;;;;;;21.31;70.78;99915.58;;;;-52
2021/08/08 04:37:52;;;;;;;1.01;1.01;;;;;;;21.31;70.85;99920.55;;;;-52
2021/08/08 04:40:52;;;;;;;1.17;1.17;;;;;;;21.31;70.77;99923.34;;;;-51
2021/08/08 04:43:52;;;;;;;1.35;1.18;;;;;;;21.31;70.73;99924.47;;;;-51
2021/08/08 04:46:52;;;;;;;1.17;1.13;;;;;;;21.30;70.75;99924.56;;;;-51
2021/08/08 04:49:52;;;;;;;1.07;1.03;;;;;;;21.30;70.82;99922.86;;;;-51
2021/08/08 04:52:52;;;;;;;1.17;1.13;;;;;;;21.30;70.76;99923.59;;;;-51
2021/08/08 04:55:52;;;;;;;1.10;1.10;;;;;;;21.29;70.77;99926.84;;;;-52
2021/08/08 04:58:52;;;;;;;1.47;1.10;;;;;;;21.29;70.80;99927.92;;;;-51
2021/08/08 05:01:52;;;;;;;1.14;1.10;;;;;;;21.29;70.83;99932.73;;;;-51
2021/08/08 05:04:52;;;;;;;1.04;1.02;;;;;;;21.28;70.80;99930.77;;;;-51
2021/08/08 05:07:52;;;;;;;1.15;1.09;;;;;;;21.29;70.86;99936.88;;;;-51
2021/08/08 05:10:52;;;;;;;1.07;1.07;;;;;;;21.29;70.84;99945.52;;;;-52
2021/08/08 05:13:52;;;;;;;1.37;1.12;;;;;;;21.29;70.84;99955.47;;;;-51
2021/08/08 05:16:53;;;;;;;1.00;1.00;;;;;;;21.29;70.85;99959.36;;;;-51
2021/08/08 05:19:52;;;;;;;1.01;1.00;;;;;;;21.28;70.83;99959.55;;;;-52
2021/08/08 05:22:52;;;;;;;1.01;1.01;;;;;;;21.27;70.92;99964.78;;;;-51
2021/08/08 05:25:56;;;;;;;1.23;1.10;;;;;;;21.26;70.82;99965.34;;;;-51
2021/08/08 05:28:52;;;;;;;1.10;1.10;;;;;;;21.27;70.86;99968.91;;;;-51
2021/08/08 05:31:52;;;;;;;1.30;1.20;;;;;;;21.27;70.85;99978.63;;;;-51
2021/08/08 05:34:52;;;;;;;1.12;1.03;;;;;;;21.26;70.90;99981.48;;;;-51
2021/08/08 05:37:52;;;;;;;1.21;1.11;;;;;;;21.26;70.89;99983.52;;;;-51
2021/08/08 05:40:52;;;;;;;1.19;1.11;;;;;;;21.27;70.91;99984.56;;;;-51
2021/08/08 05:43:52;;;;;;;1.09;1.06;;;;;;;21.26;70.91;99986.87;;;;-51
2021/08/08 05:46:52;;;;;;;0.98;0.98;;;;;;;21.26;70.88;99987.51;;;;-51
2021/08/08 05:49:52;;;;;;;1.19;1.09;;;;;;;21.26;70.88;99987.20;;;;-51
2021/08/08 05:52:52;;;;;;;1.00;1.00;;;;;;;21.26;70.90;99989.95;;;;-51
2021/08/08 05:55:52;;;;;;;0.97;0.97;;;;;;;21.26;70.90;99989.64;;;;-51
2021/08/08 05:58:52;;;;;;;1.00;1.00;;;;;;;21.26;70.91;99993.55;;;;-51
2021/08/08 06:01:52;;;;;;;1.15;1.00;;;;;;;21.26;70.89;99996.08;;;;-52
2021/08/08 06:04:52;;;;;;;1.03;1.01;;;;;;;21.26;70.89;99999.82;;;;-51
2021/08/08 06:07:52;;;;;;;1.00;1.00;;;;;;;21.26;70.89;100000.23;;;;-51
2021/08/08 06:10:52;;;;;;;1.07;1.07;;;;;;;21.25;70.86;100007.09;;;;-51
2021/08/08 06:13:52;;;;;;;1.08;1.08;;;;;;;21.25;70.86;100017.52;;;;-52
2021/08/08 06:16:52;;;;;;;1.22;1.12;;;;;;;21.26;70.86;100023.47;;;;-51
2021/08/08 06:19:52;;;;;;;1.00;1.00;;;;;;;21.25;70.91;100026.33;;;;-51
2021/08/08 06:22:52;;;;;;;1.03;1.03;;;;;;;21.25;70.86;100025.73;;;;-52
2021/08/08 06:25:52;;;;;;;1.00;1.00;;;;;;;21.25;70.90;100029.73;;;;-51
2021/08/08 06:28:54;;;;;;;1.03;1.03;;;;;;;21.25;70.87;100029.59;;;;-51
2021/08/08 06:31:52;;;;;;;1.11;1.10;;;;;;;21.24;70.90;100028.27;;;;-58
2021/08/08 06:34:52;;;;;;;1.00;1.00;;;;;;;21.24;70.86;100030.23;;;;-60
2021/08/08 06:37:52;;;;;;;1.03;1.01;;;;;;;21.25;70.88;100034.31;;;;-58
2021/08/08 06:40:52;;;;;;;1.09;1.05;;;;;;;21.25;70.87;100038.36;;;;-58
2021/08/08 06:43:52;;;;;;;1.17;1.10;;;;;;;21.25;70.87;100032.36;;;;-52
2021/08/08 06:46:52;;;;;;;1.47;1.10;;;;;;;21.25;70.89;100033.15;;;;-51
2021/08/08 06:49:52;;;;;;;1.00;1.00;;;;;;;21.25;70.91;100039.59;;;;-51
2021/08/08 06:52:52;;;;;;;1.20;1.10;;;;;;;21.25;70.84;100046.11;;;;-51
2021/08/08 06:55:52;;;;;;;1.20;1.10;;;;;;;21.25;70.86;100055.41;;;;-51
2021/08/08 06:58:52;;;;;;;1.07;1.00;;;;;;;21.24;70.90;100053.13;;;;-52
2021/08/08 07:01:52;;;;;;;1.05;1.05;;;;;;;21.24;70.89;100053.20;;;;-51
2021/08/08 07:04:52;;;;;;;1.05;1.05;;;;;;;21.25;70.88;100047.91;;;;-51
2021/08/08 07:07:52;;;;;;;1.18;1.07;;;;;;;21.25;70.90;100047.91;;;;-51
2021/08/08 07:10:52;;;;;;;1.17;1.11;;;;;;;21.24;70.87;100049.38;;;;-51
2021/08/08 07:13:52;;;;;;;1.20;1.09;;;;;;;21.24;70.80;100050.45;;;;-51
2021/08/08 07:16:52;;;;;;;1.08;1.08;;;;;;;21.24;70.86;100054.77;;;;-51
2021/08/08 07:19:52;;;;;;;1.15;1.09;;;;;;;21.24;70.88;100060.23;;;;-51
2021/08/08 07:22:52;;;;;;;1.11;1.05;;;;;;;21.23;70.87;100058.20;;;;-51
2021/08/08 07:25:52;;;;;;;1.03;1.03;;;;;;;21.23;70.86;100053.97;;;;-51
2021/08/08 07:28:52;;;;;;;1.05;1.05;;;;;;;21.23;70.85;100059.17;;;;-51
2021/08/08 07:31:52;;;;;;;1.22;1.10;;;;;;;21.23;70.81;100063.98;;;;-51
2021/08/08 07:34:52;;;;;;;1.08;1.08;;;;;;;21.23;70.84;100071.63;;;;-51
2021/08/08 07:37:52;;;;;;;4.62;1.19;;;;;;;21.24;70.96;100075.39;;;;-49
2021/08/08 07:40:52;;;;;;;1.82;1.20;;;;;;;21.24;70.57;100078.81;;;;-51
2021/08/08 07:43:52;;;;;;;2.27;1.50;;;;;;;21.23;70.19;100077.75;;;;-50
2021/08/08 07:46:52;;;;;;;2.27;1.32;;;;;;;21.20;69.86;100084.78;;;;-51
2021/08/08 07:49:52;;;;;;;3.69;1.51;;;;;;;21.19;69.84;100086.26;;;;-51
2021/08/08 07:52:52;;;;;;;2.19;1.35;;;;;;;21.21;69.96;100086.09;;;;-52
2021/08/08 07:55:55;;;;;;;2.28;1.33;;;;;;;21.22;70.04;100090.39;;;;-52
2021/08/08 07:58:52;;;;;;;2.41;1.74;;;;;;;21.23;70.21;100100.34;;;;-51
2021/08/08 08:01:52;;;;;;;1.83;1.49;;;;;;;21.26;70.37;100102.84;;;;-53
2021/08/08 08:04:52;;;;;;;2.77;1.47;;;;;;;21.28;70.33;100099.32;;;;-53
2021/08/08 08:07:52;;;;;;;2.95;1.32;;;;;;;21.30;70.39;100106.64;;;;-51
2021/08/08 08:10:52;;;;;;;2.46;1.45;;;;;;;21.32;70.48;100102.06;;;;-51
2021/08/08 08:13:52;;;;;;;1.79;1.43;;;;;;;21.33;70.66;100100.41;;;;-50
2021/08/08 08:16:52;;;;;;;2.85;1.42;;;;;;;21.34;70.62;100108.73;;;;-51
2021/08/08 08:19:52;;;;;;;2.20;1.50;;;;;;;21.36;70.69;100109.22;;;;-53
2021/08/08 08:22:52;;;;;;;2.92;1.58;;;;;;;21.37;70.63;100113.92;;;;-49
2021/08/08 08:25:52;;;;;;;2.85;1.57;;;;;;;21.38;70.69;100112.13;;;;-50
2021/08/08 08:28:52;;;;;;;4.25;1.48;;;;;;;21.38;70.66;100111.31;;;;-55
2021/08/08 08:31:52;;;;;;;2.79;1.49;;;;;;;21.40;70.68;100109.03;;;;-52
2021/08/08 08:34:52;;;;;;;3.17;1.49;;;;;;;21.41;70.56;100107.21;;;;-59
2021/08/08 08:37:52;;;;;;;3.42;1.46;;;;;;;21.40;70.63;100102.41;;;;-59
2021/08/08 08:40:52;;;;;;;2.17;1.40;;;;;;;21.40;70.56;100107.06;;;;-59
2021/08/08 08:43:52;;;;;;;2.25;1.62;;;;;;;21.40;70.60;100107.78;;;;-59
2021/08/08 08:46:52;;;;;;;1.93;1.55;;;;;;;21.40;70.61;100112.28;;;;-59
2021/08/08 08:49:52;;;;;;;3.33;1.61;;;;;;;21.40;70.60;100114.57;;;;-58
2021/08/08 08:52:52;;;;;;;3.79;1.51;;;;;;;21.40;70.56;100118.22;;;;-58
2021/08/08 08:55:52;;;;;;;3.56;1.66;;;;;;;21.40;70.52;100114.97;;;;-59
2021/08/08 08:58:52;;;;;;;2.14;1.45;;;;;;;21.39;70.54;100122.48;;;;-58
2021/08/08 09:01:52;;;;;;;1.68;1.48;;;;;;;21.39;70.54;100123.62;;;;-59
2021/08/08 09:04:52;;;;;;;2.16;1.43;;;;;;;21.40;70.46;100123.94;;;;-58
2021/08/08 09:07:52;;;;;;;5.47;1.74;;;;;;;21.42;70.51;100125.16;;;;-60
2021/08/08 09:10:52;;;;;;;2.63;1.60;;;;;;;21.42;70.53;100125.26;;;;-52
2021/08/08 09:13:52;;;;;;;4.27;1.77;;;;;;;21.44;70.60;100129.16;;;;-52
2021/08/08 09:16:52;;;;;;;4.44;1.49;;;;;;;21.45;70.59;100128.48;;;;-51
2021/08/08 09:19:52;;;;;;;10.75;1.61;;;;;;;21.47;70.63;100134.09;;;;-55
2021/08/08 09:22:52;;;;;;;3.93;1.61;;;;;;;21.48;70.73;100127.83;;;;-51
2021/08/08 09:25:52;;;;;;;2.63;1.39;;;;;;;21.49;70.77;100124.70;;;;-50
2021/08/08 09:28:52;;;;;;;2.31;1.35;;;;;;;21.50;70.85;100124.86;;;;-51
2021/08/08 09:31:52;;;;;;;3.32;1.63;;;;;;;21.52;70.79;100133.08;;;;-53
2021/08/08 09:34:54;;;;;;;4.32;1.57;;;;;;;21.52;70.90;100144.52;;;;-50
2021/08/08 09:37:52;;;;;;;2.18;1.51;;;;;;;21.53;70.94;100143.92;;;;-53
2021/08/08 09:40:52;;;;;;;2.73;1.67;;;;;;;21.54;70.94;100141.63;;;;-53
2021/08/08 09:43:52;;;;;;;2.57;1.48;;;;;;;21.55;70.98;100135.20;;;;-55
2021/08/08 09:46:52;;;;;;;5.42;1.53;;;;;;;21.56;71.00;100137.78;;;;-54
2021/08/08 09:49:52;;;;;;;2.65;1.40;;;;;;;21.57;71.04;100133.13;;;;-50
2021/08/08 09:52:52;;;;;;;2.93;1.57;;;;;;;21.58;71.04;100132.39;;;;-50
2021/08/08 09:55:52;;;;;;;3.97;1.63;;;;;;;21.59;71.03;100134.17;;;;-51
2021/08/08 09:58:52;;;;;;;4.11;1.59;;;;;;;21.60;71.13;100131.06;;;;-59
2021/08/08 10:01:52;;;;;;;2.24;1.50;;;;;;;21.61;71.16;100132.79;;;;-61
2021/08/08 10:04:52;;;;;;;4.68;1.53;;;;;;;21.61;71.17;100131.39;;;;-62
2021/08/08 10:07:52;;;;;;;4.63;1.49;;;;;;;21.62;71.13;100127.63;;;;-61
2021/08/08 10:10:52;;;;;;;2.45;1.53;;;;;;;21.63;71.08;100129.50;;;;-63
2021/08/08 10:13:52;;;;;;;3.23;1.36;;;;;;;21.62;70.93;100125.03;;;;-63
2021/08/08 10:16:52;;;;;;;2.97;1.53;;;;;;;21.62;70.95;100122.82;;;;-63
2021/08/08 10:19:53;;;;;;;2.39;1.40;;;;;;;21.62;70.97;100129.33;;;;-62
2021/08/08 10:22:52;;;;;;;4.11;1.52;;;;;;;21.61;70.81;100134.91;;;;-62
2021/08/08 10:25:53;;;;;;;1.71;1.40;;;;;;;21.61;70.86;100129.28;;;;-61
2021/08/08 10:28:52;;;;;;;2.65;1.40;;;;;;;21.59;70.80;100135.39;;;;-63
2021/08/08 10:31:52;;;;;;;3.67;1.51;;;;;;;21.59;70.76;100136.38;;;;-62
2021/08/08 10:34:52;;;;;;;1.77;1.40;;;;;;;21.59;70.74;100139.48;;;;-52
2021/08/08 10:37:52;;;;;;;2.19;1.31;;;;;;;21.59;70.74;100135.49;;;;-63
2021/08/08 10:40:52;;;;;;;2.03;1.49;;;;;;;21.58;70.77;100144.22;;;;-63
2021/08/08 10:43:52;;;;;;;1.88;1.36;;;;;;;21.58;70.75;100143.41;;;;-62
2021/08/08 10:46:52;;;;;;;1.69;1.50;;;;;;;21.58;70.68;100143.47;;;;-62
2021/08/08 10:49:52;;;;;;;2.34;1.55;;;;;;;21.58;70.61;100145.78;;;;-62
2021/08/08 10:52:52;;;;;;;1.73;1.31;;;;;;;21.57;70.67;100137.38;;;;-63
2021/08/08 10:55:52;;;;;;;1.79;1.50;;;;;;;21.57;70.63;100140.30;;;;-62
2021/08/08 10:58:52;;;;;;;2.19;1.42;;;;;;;21.57;70.58;100142.51;;;;-61
2021/08/08 11:01:52;;;;;;;4.31;1.67;;;;;;;21.57;70.56;100138.27;;;;-62
2021/08/08 11:04:52;;;;;;;3.43;1.31;;;;;;;21.57;70.58;100139.32;;;;-63
2021/08/08 11:07:52;;;;;;;2.89;1.42;;;;;;;21.57;70.56;100143.65;;;;-64
2021/08/08 11:10:52;;;;;;;2.41;1.41;;;;;;;21.57;70.55;100143.73;;;;-64
2021/08/08 11:13:52;;;;;;;1.93;1.39;;;;;;;21.57;70.50;100141.70;;;;-62
2021/08/08 11:16:52;;;;;;;1.85;1.39;;;;;;;21.57;70.51;100142.84;;;;-63
2021/08/08 11:19:52;;;;;;;1.95;1.41;;;;;;;21.56;70.51;100140.41;;;;-64
2021/08/08 11:22:52;;;;;;;2.10;1.50;;;;;;;21.57;70.55;100143.25;;;;-61
2021/08/08 11:25:52;;;;;;;3.17;1.35;;;;;;;21.56;70.50;100144.16;;;;-62
2021/08/08 11:28:52;;;;;;;1.77;1.38;;;;;;;21.56;70.42;100139.76;;;;-64
2021/08/08 11:31:52;;;;;;;2.98;1.40;;;;;;;21.56;70.43;100136.06;;;;-63
2021/08/08 11:34:52;;;;;;;1.58;1.40;;;;;;;21.55;70.48;100143.09;;;;-62
2021/08/08 11:37:52;;;;;;;2.12;1.40;;;;;;;21.56;70.47;100142.26;;;;-63
2021/08/08 11:40:52;;;;;;;1.56;1.40;;;;;;;21.55;70.45;100148.80;;;;-62
2021/08/08 11:43:52;;;;;;;1.40;1.30;;;;;;;21.55;70.44;100141.05;;;;-59
2021/08/08 11:46:52;;;;;;;2.06;1.31;;;;;;;21.54;70.42;100149.88;;;;-59
2021/08/08 11:49:52;;;;;;;1.48;1.29;;;;;;;21.54;70.44;100158.04;;;;-59
2021/08/08 11:52:52;;;;;;;1.49;1.23;;;;;;;21.55;70.41;100171.07;;;;-59
2021/08/08 11:55:52;;;;;;;1.53;1.35;;;;;;;21.55;70.47;100181.90;;;;-52
2021/08/08 11:58:52;;;;;;;2.23;1.41;;;;;;;21.57;70.46;100183.78;;;;-63
2021/08/08 12:01:52;;;;;;;3.95;1.40;;;;;;;21.57;70.42;100182.70;;;;-52
2021/08/08 12:04:52;;;;;;;1.82;1.43;;;;;;;21.58;70.44;100192.26;;;;-57
2021/08/08 12:07:52;;;;;;;2.47;1.65;;;;;;;21.58;70.34;100188.58;;;;-58
2021/08/08 12:10:52;;;;;;;2.46;1.46;;;;;;;21.60;70.32;100187.66;;;;-59
2021/08/08 12:13:52;;;;;;;3.33;1.40;;;;;;;21.60;70.29;100186.53;;;;-59
2021/08/08 12:16:52;;;;;;;2.51;1.55;;;;;;;21.61;70.34;100175.26;;;;-58
2021/08/08 12:19:54;;;;;;;2.82;1.50;;;;;;;21.62;70.30;100184.89;;;;-61
2021/08/08 12:22:52;;;;;;;2.10;1.43;;;;;;;21.63;70.34;100171.42;;;;-55
2021/08/08 12:25:52;;;;;;;1.94;1.45;;;;;;;21.64;70.29;100174.67;;;;-59
2021/08/08 12:28:52;;;;;;;2.07;1.49;;;;;;;21.64;70.26;100162.37;;;;-61
2021/08/08 12:31:52;;;;;;;1.81;1.50;;;;;;;21.65;70.21;100164.06;;;;-55
2021/08/08 12:34:52;;;;;;;2.18;1.51;;;;;;;21.65;70.27;100165.94;;;;-59
2021/08/08 12:37:52;;;;;;;1.91;1.46;;;;;;;21.65;70.27;100171.33;;;;-60
2021/08/08 12:40:52;;;;;;;2.71;1.65;;;;;;;21.66;70.24;100181.89;;;;-57
2021/08/08 12:43:52;;;;;;;2.43;1.67;;;;;;;21.67;70.22;100176.78;;;;-58
2021/08/08 12:46:52;;;;;;;2.41;1.50;;;;;;;21.67;70.18;100170.26;;;;-49
2021/08/08 12:49:52;;;;;;;5.42;1.70;;;;;;;21.68;70.17;100175.04;;;;-55
2021/08/08 12:52:52;;;;;;;4.39;1.66;;;;;;;21.68;70.09;100172.18;;;;-60
2021/08/08 12:55:55;;;;;;;2.29;1.59;;;;;;;21.69;69.84;100165.02;;;;-56
2021/08/08 12:58:53;;;;;;;3.25;1.59;;;;;;;21.69;70.01;100162.23;;;;-58
2021/08/08 13:01:52;;;;;;;4.29;1.68;;;;;;;21.69;69.96;100162.00;;;;-59
2021/08/08 13:04:52;;;;;;;2.05;1.63;;;;;;;21.70;69.97;100163.05;;;;-56
2021/08/08 13:07:52;;;;;;;4.41;1.76;;;;;;;21.71;69.97;100170.23;;;;-54
2021/08/08 13:10:52;;;;;;;1.91;1.51;;;;;;;21.70;69.91;100170.13;;;;-56
2021/08/08 13:13:52;;;;;;;3.07;1.50;;;;;;;21.71;69.88;100175.36;;;;-51
2021/08/08 13:16:52;;;;;;;2.71;1.69;;;;;;;21.72;69.89;100179.99;;;;-58
2021/08/08 13:19:52;;;;;;;3.23;1.74;;;;;;;21.72;69.73;100198.52;;;;-57
2021/08/08 13:22:52;;;;;;;2.31;1.69;;;;;;;21.72;69.86;100186.28;;;;-56
2021/08/08 13:25:52;;;;;;;2.99;1.69;;;;;;;21.71;69.83;100196.00;;;;-56
2021/08/08 13:28:52;;;;;;;5.32;1.82;;;;;;;21.71;69.84;100199.17;;;;-57
2021/08/08 13:31:52;;;;;;;2.55;1.70;;;;;;;21.70;69.82;100208.62;;;;-57
2021/08/08 13:34:52;;;;;;;3.59;1.70;;;;;;;21.70;69.81;100211.48;;;;-56
2021/08/08 13:37:52;;;;;;;3.60;1.78;;;;;;;21.69;69.90;100207.98;;;;-58
2021/08/08 13:40:52;;;;;;;2.44;1.61;;;;;;;21.68;69.90;100205.53;;;;-51
2021/08/08 13:43:52;;;;;;;3.28;1.75;;;;;;;21.68;69.98;100210.67;;;;-56
2021/08/08 13:46:52;;;;;;;2.82;1.69;;;;;;;21.68;69.97;100207.81;;;;-52
2021/08/08 13:49:52;;;;;;;6.77;1.81;;;;;;;21.69;69.98;100202.13;;;;-52
2021/08/08 13:52:52;;;;;;;3.34;1.70;;;;;;;21.69;70.09;100194.77;;;;-52
2021/08/08 13:55:52;;;;;;;2.51;1.65;;;;;;;21.69;70.05;100193.97;;;;-52
2021/08/08 13:58:52;;;;;;;4.29;1.83;;;;;;;21.68;70.10;100188.66;;;;-52
2021/08/08 14:01:52;;;;;;;2.37;1.77;;;;;;;21.68;70.02;100188.34;;;;-53
2021/08/08 14:04:52;;;;;;;4.03;1.74;;;;;;;21.68;70.05;100191.84;;;;-52
2021/08/08 14:07:52;;;;;;;2.89;1.65;;;;;;;21.67;70.08;100195.20;;;;-52
2021/08/08 14:10:52;;;;;;;3.61;1.84;;;;;;;21.67;70.08;100197.98;;;;-52
2021/08/08 14:13:52;;;;;;;2.25;1.64;;;;;;;21.66;70.10;100201.80;;;;-52
2021/08/08 14:16:52;;;;;;;3.26;1.67;;;;;;;21.66;70.04;100207.34;;;;-52
2021/08/08 14:19:52;;;;;;;3.69;1.67;;;;;;;21.66;70.10;100216.23;;;;-52
2021/08/08 14:22:52;;;;;;;3.27;1.69;;;;;;;21.66;70.11;100218.04;;;;-52
2021/08/08 14:25:53;;;;;;;2.58;1.57;;;;;;;21.66;70.12;100215.59;;;;-59
2021/08/08 14:28:52;;;;;;;2.19;1.68;;;;;;;21.66;70.10;100211.03;;;;-59
2021/08/08 14:31:52;;;;;;;1.92;1.55;;;;;;;21.65;70.11;100203.13;;;;-59
2021/08/08 14:34:52;;;;;;;1.97;1.57;;;;;;;21.65;70.06;100210.47;;;;-59
2021/08/08 14:37:52;;;;;;;2.29;1.70;;;;;;;21.64;70.05;100207.93;;;;-51
2021/08/08 14:40:52;;;;;;;2.59;1.68;;;;;;;21.64;70.00;100213.47;;;;-52
2021/08/08 14:43:52;;;;;;;1.93;1.60;;;;;;;21.63;70.05;100219.28;;;;-51
2021/08/08 14:46:52;;;;;;;2.86;1.58;;;;;;;21.63;70.05;100223.20;;;;-52
2021/08/08 14:49:52;;;;;;;1.74;1.50;;;;;;;21.64;69.97;100227.67;;;;-52
2021/08/08 14:52:52;;;;;;;1.63;1.50;;;;;;;21.63;70.05;100228.52;;;;-51
2021/08/08 14:55:52;;;;;;;1.57;1.47;;;;;;;21.63;69.99;100239.60;;;;-52
2021/08/08 14:58:52;;;;;;;2.20;1.60;;;;;;;21.63;70.08;100244.66;;;;-51
2021/08/08 15:01:52;;;;;;;1.79;1.58;;;;;;;21.62;70.01;100253.55;;;;-51
2021/08/08 15:04:52;;;;;;;1.82;1.42;;;;;;;21.61;70.07;100248.48;;;;-51
2021/08/08 15:07:52;;;;;;;3.12;1.59;;;;;;;21.62;70.01;100247.58;;;;-59
2021/08/08 15:10:52;;;;;;;1.78;1.48;;;;;;;21.62;70.06;100253.38;;;;-59
2021/08/08 15:13:52;;;;;;;2.21;1.63;;;;;;;21.61;70.08;100263.09;;;;-59
2021/08/08 15:16:52;;;;;;;1.70;1.46;;;;;;;21.61;70.15;100252.81;;;;-55
2021/08/08 15:19:53;;;;;;;2.10;1.55;;;;;;;21.63;70.15;100260.31;;;;-54
2021/08/08 15:22:52;;;;;;;2.48;1.51;;;;;;;21.64;70.12;100252.95;;;;-51
2021/08/08 15:25:52;;;;;;;2.79;1.63;;;;;;;21.65;70.15;100256.62;;;;-51
2021/08/08 15:28:52;;;;;;;1.77;1.49;;;;;;;21.67;70.19;100261.44;;;;-58
2021/08/08 15:31:52;;;;;;;1.73;1.49;;;;;;;21.67;70.13;100264.11;;;;-53
2021/08/08 15:34:52;;;;;;;3.59;1.59;;;;;;;21.68;70.09;100262.72;;;;-53
2021/08/08 15:37:52;;;;;;;2.07;1.45;;;;;;;21.69;70.00;100264.52;;;;-52
2021/08/08 15:41:00;;;;;;;2.83;1.52;;;;;;;21.69;70.08;100272.51;;;;-51
2021/08/08 15:43:52;;;;;;;3.17;1.50;;;;;;;21.70;69.99;100270.86;;;;-59
2021/08/08 15:46:52;;;;;;;2.27;1.53;;;;;;;21.71;69.96;100275.52;;;;-58
2021/08/08 15:49:52;;;;;;;2.53;1.47;;;;;;;21.70;69.97;100276.97;;;;-66
2021/08/08 15:52:52;;;;;;;2.35;1.73;;;;;;;21.72;70.02;100276.65;;;;-62
2021/08/08 15:55:52;;;;;;;2.87;1.58;;;;;;;21.72;69.90;100277.61;;;;-51
2021/08/08 15:58:52;;;;;;;2.37;1.50;;;;;;;21.72;69.95;100283.41;;;;-57
2021/08/08 16:01:52;;;;;;;1.69;1.48;;;;;;;21.73;69.95;100293.86;;;;-57
2021/08/08 16:04:52;;;;;;;1.65;1.50;;;;;;;21.73;69.94;100295.73;;;;-51
2021/08/08 16:07:52;;;;;;;2.33;1.60;;;;;;;21.74;69.89;100306.23;;;;-59
2021/08/08 16:10:53;;;;;;;3.28;1.61;;;;;;;21.74;69.80;100314.32;;;;-61
2021/08/08 16:13:52;;;;;;;2.99;1.65;;;;;;;21.75;69.84;100334.53;;;;-62
2021/08/08 16:16:52;;;;;;;2.24;1.64;;;;;;;21.75;69.85;100356.17;;;;-60
2021/08/08 16:19:52;;;;;;;2.75;1.62;;;;;;;21.75;69.74;100356.48;;;;-52
2021/08/08 16:22:52;;;;;;;1.53;1.43;;;;;;;21.76;69.84;100355.75;;;;-61
2021/08/08 16:25:52;;;;;;;1.65;1.55;;;;;;;21.76;69.84;100357.95;;;;-64
2021/08/08 16:28:52;;;;;;;2.88;1.64;;;;;;;21.76;69.83;100363.48;;;;-58
2021/08/08 16:31:52;;;;;;;4.66;1.59;;;;;;;21.76;69.69;100363.08;;;;-61
2021/08/08 16:34:52;;;;;;;2.65;1.61;;;;;;;21.78;69.81;100369.68;;;;-51
2021/08/08 16:37:52;;;;;;;1.79;1.51;;;;;;;21.78;69.76;100377.27;;;;-54
2021/08/08 16:40:52;;;;;;;1.63;1.53;;;;;;;21.78;69.75;100375.23;;;;-51
2021/08/08 16:43:52;;;;;;;2.55;1.76;;;;;;;21.78;69.71;100373.36;;;;-55
2021/08/08 16:46:53;;;;;;;4.77;1.79;;;;;;;21.78;69.69;100375.05;;;;-52